Nearby METAR Reports

 

KCOS - Colorado Springs, Colorado, USA
Distance from station: S 6mi, 9km
Updated: Mon, 26-Sep-2022 2:54pm MDT
Few Clouds
Few Clouds
 Wind from NE
Wind: NE 14 mph , 22 km/h, Gust: 23 mph , 37 km/h
Temperature: 82°F , 28°C
Dew Point: 28°F , -2°C
Humidity: 14%
Barometer: 30.30 inHg , 1026.1 hPa
Clouds: Few Clouds
Visibility: 10 miles , 16 km
Cloud details: Few Clouds 8000 ft
2022/09/26 20:54 KCOS 262054Z 05012G20KT 10SM FEW080 28/M02 A3030 RMK AO2 SLP189 T02781022 58015
KAFF - Usaf Academy/Cos, Colorado, USA
Distance from station: NW 7mi, 12km
Updated: Mon, 26-Sep-2022 2:56pm MDT
Clear
Clear
 Wind from NNE
Wind: NNE 9 mph , 15 km/h
Temperature: 77°F , 25°C
Dew Point: 23°F , -5°C
Humidity: 13%
Barometer: 30.31 inHg , 1026.4 hPa
Clouds: Clear
Visibility: 10 miles , 16 km
2022/09/26 20:56 KAFF 262056Z AUTO 02008KT 10SM CLR 25/M05 A3031 RMK AO2 SLP200 T02521052 57014
 
KFLY - Co Spngs Meadow, Colorado, USA
Distance from station: ENE 8mi, 13km
Updated: Mon, 26-Sep-2022 3:15pm MDT
Clear
Clear
 Wind from NE
Wind: NE 12 mph , 19 km/h, Gust: 20 mph , 31 km/h
Temperature: 77°F , 25°C
Dew Point: 30°F , -1°C
Humidity: 18%
Barometer: 30.37 inHg , 1028.4 hPa
Clouds: Clear
2022/09/26 21:15 KFLY 262115Z AUTO 04010G17KT CLR 25/M01 A3037 RMK AO2 T02541015 PWINO
KFCS - Fort Carson, Colorado, USA
Distance from station: S 17mi, 27km
Updated: Mon, 26-Sep-2022 2:56pm MDT
Clear
Clear
 Wind from NE
Wind: NE 15 mph , 24 km/h, Gust: 18 mph , 30 km/h
Temperature: 82°F , 28°C
Dew Point: 25°F , -4°C
Humidity: 12%
Barometer: 30.25 inHg , 1024.4 hPa
Clouds: Clear
Visibility: 10 miles , 16 km
2022/09/26 20:56 KFCS 262056Z AUTO 05013G16KT 10SM CLR 28/M04 A3025 RMK AO2 SLP195 T02811040 57013 $
 
KMNH - Monument/Elbert, Colorado, USA
Distance from station: N 22mi, 35km
Updated: Mon, 26-Sep-2022 3:15pm MDT
Clear
Clear
 Wind from NE
Wind: NE 10 mph , 17 km/h
Temperature: 72°F , 22°C
Dew Point: 30°F , -1°C
Humidity: 22%
Barometer: 30.38 inHg , 1028.8 hPa
Clouds: Clear
Visibility: 10 miles , 16 km
2022/09/26 21:15 KMNH 262115Z AUTO 04009KT 10SM CLR 22/M01 A3038 RMK AO2
K1V6 - Canon City, Colorado, USA
Distance from station: SSW 39mi, 62km
Updated: Mon, 26-Sep-2022 3:15pm MDT
Clear
Clear
 Wind from ESE
Wind: ESE 13 mph , 20 km/h
Temperature: 86°F , 30°C
Dew Point: 32°F , 0°C
Humidity: 14%
Barometer: 30.23 inHg , 1023.7 hPa
Clouds: Clear
Visibility: 10 miles , 16 km
2022/09/26 21:15 K1V6 262115Z AUTO 11011KT 10SM CLR 30/00 A3023 RMK AO2
 
KPUB - Pueblo, Colorado, USA
Distance from station: SSE 44mi, 71km
Updated: Mon, 26-Sep-2022 2:53pm MDT
Clear
Clear
 Wind from varies
Wind: varies 5 mph , 7 km/h, Gust: 20 mph , 31 km/h
Temperature: 88°F , 31°C
Dew Point: 27°F , -3°C
Humidity: 11%
Barometer: 30.19 inHg , 1022.4 hPa
Clouds: Clear
Visibility: 10 miles , 16 km
2022/09/26 20:53 KPUB 262053Z VRB04G17KT 10SM CLR 31/M03 A3019 RMK AO2 SLP166 T03111028 56019
KAPA - Denver/Arapahoe, Colorado, USA
Distance from station: N 47mi, 75km
Updated: Mon, 26-Sep-2022 2:53pm MDT
Few Clouds
Few Clouds
 Wind from calm
Wind: Calm
Temperature: 79°F , 26°C
Dew Point: 34°F , 1°C
Humidity: 20%
Barometer: 30.29 inHg , 1025.7 hPa
Clouds: Few Clouds
Visibility: 10 miles , 16 km
Cloud details: Few Clouds 10000 ft
2022/09/26 20:53 KAPA 262053Z 00000KT 10SM FEW100 26/01 A3029 RMK AO2 SLP205 T02560006 58014